createdAt,value
2018-09-11T00:00:09.093Z,6.60
2018-09-11T00:02:43.491Z,7.57
2018-09-11T00:05:17.922Z,6.53
2018-09-11T00:07:52.321Z,7.47
2018-09-11T00:10:26.761Z,6.80
2018-09-11T00:13:01.158Z,6.80
2018-09-11T00:15:35.534Z,7.17
2018-09-11T00:18:09.903Z,7.20
2018-09-11T00:20:44.342Z,6.87
2018-09-11T00:23:18.732Z,7.00
2018-09-11T00:25:53.107Z,6.47
2018-09-11T00:28:27.487Z,7.37
2018-09-11T00:31:01.960Z,6.97
2018-09-11T00:33:36.396Z,8.30
2018-09-11T00:36:10.768Z,6.70
2018-09-11T00:38:45.121Z,6.97
2018-09-11T00:41:19.492Z,7.50
2018-09-11T00:43:53.963Z,7.90
2018-09-11T00:46:28.344Z,6.57
2018-09-11T00:49:02.787Z,6.93
2018-09-11T00:51:37.162Z,7.60
2018-09-11T00:54:11.624Z,7.97
2018-09-11T00:56:45.964Z,7.40
2018-09-11T00:59:20.410Z,7.77
2018-09-11T01:01:54.953Z,7.47
2018-09-11T01:04:29.414Z,7.27
2018-09-11T01:07:03.918Z,7.60
2018-09-11T01:09:38.261Z,7.17
2018-09-11T01:12:12.697Z,6.90
2018-09-11T01:14:47.033Z,7.00
2018-09-11T01:17:21.398Z,7.77
2018-09-11T01:19:55.745Z,7.43
2018-09-11T01:22:30.143Z,7.27
2018-09-11T01:25:04.614Z,8.03
2018-09-11T01:27:39.044Z,7.07
2018-09-11T01:30:17.603Z,7.47
2018-09-11T01:32:52.674Z,7.53
2018-09-11T01:35:27.092Z,7.53
2018-09-11T01:38:01.542Z,7.33
2018-09-11T01:40:35.981Z,7.30
2018-09-11T01:43:10.426Z,7.10
2018-09-11T01:45:44.873Z,7.27
2018-09-11T01:48:19.249Z,7.53
2018-09-11T01:50:53.671Z,7.17
2018-09-11T01:53:28.095Z,6.80
2018-09-11T01:56:02.663Z,7.43
2018-09-11T01:58:37.070Z,7.20
2018-09-11T02:01:11.434Z,6.63
2018-09-11T02:03:45.982Z,6.80
2018-09-11T02:06:20.378Z,7.60
2018-09-11T02:08:54.806Z,7.07
2018-09-11T02:11:29.255Z,7.10
2018-09-11T02:14:03.959Z,7.20
2018-09-11T02:16:38.380Z,7.20
2018-09-11T02:19:12.778Z,7.60
2018-09-11T02:21:47.357Z,7.17
2018-09-11T02:24:21.912Z,7.83
2018-09-11T02:26:56.338Z,7.67
2018-09-11T02:29:30.773Z,7.37
2018-09-11T02:32:05.245Z,7.13
2018-09-11T02:34:39.681Z,7.87
2018-09-11T02:37:14.018Z,8.17
2018-09-11T02:39:48.412Z,8.27
2018-09-11T02:42:22.847Z,7.63
2018-09-11T02:44:57.225Z,7.13
2018-09-11T02:47:31.665Z,7.17
2018-09-11T02:50:06.697Z,7.13
2018-09-11T02:52:41.151Z,7.27
2018-09-11T02:55:15.587Z,7.50
2018-09-11T02:57:49.970Z,7.23
2018-09-11T03:00:24.397Z,7.90
2018-09-11T03:03:01.879Z,7.87
2018-09-11T03:05:36.973Z,7.50
2018-09-11T03:08:11.375Z,8.20
2018-09-11T03:10:46.851Z,7.63
2018-09-11T03:13:22.335Z,7.67
2018-09-11T03:15:56.794Z,7.53
2018-09-11T03:18:32.030Z,7.43
2018-09-11T03:21:07.399Z,7.80
2018-09-11T03:23:41.855Z,6.70
2018-09-11T03:26:16.789Z,7.87
2018-09-11T03:28:52.507Z,7.10
2018-09-11T03:31:27.441Z,7.40
2018-09-11T03:34:02.032Z,7.37
2018-09-11T03:36:38.117Z,7.80
2018-09-11T03:39:13.546Z,7.17
2018-09-11T03:41:47.930Z,7.27
2018-09-11T03:44:22.670Z,7.87
2018-09-11T03:46:57.859Z,7.37
2018-09-11T03:49:33.298Z,7.90
2018-09-11T03:52:09.703Z,7.13
2018-09-11T03:54:44.166Z,7.23
2018-09-11T03:57:18.735Z,7.50
2018-09-11T03:59:53.757Z,7.03
2018-09-11T04:02:28.214Z,8.30
2018-09-11T04:05:03.946Z,7.50
2018-09-11T04:07:38.446Z,8.20
2018-09-11T04:10:14.285Z,9.10
2018-09-11T04:12:49.629Z,8.10
2018-09-11T04:15:24.791Z,7.80
2018-09-11T04:18:01.025Z,6.73
2018-09-11T04:20:35.514Z,8.00
2018-09-11T04:23:11.528Z,7.63
2018-09-11T04:25:46.701Z,7.43
2018-09-11T04:28:21.590Z,7.27
2018-09-11T04:30:55.984Z,7.40
2018-09-11T04:33:31.312Z,7.63
2018-09-11T04:36:07.255Z,7.73
2018-09-11T04:38:42.392Z,7.97
2018-09-11T04:41:17.690Z,8.20
2018-09-11T04:43:55.070Z,8.10
2018-09-11T04:46:30.606Z,8.03
2018-09-11T04:49:05.028Z,7.87
2018-09-11T04:51:39.419Z,8.03
2018-09-11T04:54:13.898Z,7.97
2018-09-11T04:56:48.318Z,7.93
2018-09-11T04:59:22.873Z,7.70
2018-09-11T05:01:57.237Z,8.10
2018-09-11T05:04:31.600Z,7.90
2018-09-11T05:07:06.125Z,8.10
2018-09-11T05:09:40.593Z,8.73
2018-09-11T05:12:15.696Z,7.60
2018-09-11T05:14:50.159Z,8.23
2018-09-11T05:21:16.138Z,7.60
2018-09-11T05:23:50.548Z,8.70
2018-09-11T05:26:24.974Z,8.20
2018-09-11T05:28:59.342Z,8.20
2018-09-11T05:31:34.006Z,8.13
2018-09-11T05:34:08.405Z,8.60
2018-09-11T05:36:43.011Z,9.03
2018-09-11T05:39:17.871Z,9.13
2018-09-11T05:41:52.282Z,7.87
2018-09-11T05:44:26.702Z,8.60
2018-09-11T05:47:01.300Z,7.90
2018-09-11T05:49:35.751Z,8.10
2018-09-11T05:52:10.114Z,8.27
2018-09-11T05:54:44.627Z,8.27
2018-09-11T05:57:19.099Z,8.97
2018-09-11T05:59:53.477Z,8.27
2018-09-11T06:02:27.964Z,8.40
2018-09-11T06:05:02.370Z,8.50
2018-09-11T06:07:36.684Z,9.43
2018-09-11T06:10:11.059Z,9.07
2018-09-11T06:12:46.318Z,9.07
2018-09-11T06:15:20.846Z,9.23
2018-09-11T06:17:55.437Z,9.30
2018-09-11T06:20:29.769Z,8.60
2018-09-11T06:23:04.175Z,8.73
2018-09-11T06:25:38.592Z,9.70
2018-09-11T06:28:12.931Z,8.80
2018-09-11T06:30:47.274Z,9.40
2018-09-11T06:33:21.685Z,9.27
2018-09-11T06:35:56.065Z,9.40
2018-09-11T06:38:30.499Z,10.03
2018-09-11T06:41:04.913Z,9.20
2018-09-11T06:43:39.358Z,8.70
2018-09-11T06:46:13.749Z,9.43
2018-09-11T06:48:48.243Z,8.40
2018-09-11T06:51:22.678Z,8.17
2018-09-11T06:53:57.038Z,8.47
2018-09-11T06:56:31.387Z,8.53
2018-09-11T06:59:06.251Z,7.93
2018-09-11T07:01:40.535Z,8.00
2018-09-11T07:04:15.133Z,7.73
2018-09-11T07:06:49.506Z,8.07
2018-09-11T07:09:23.854Z,7.70
2018-09-11T07:11:58.388Z,7.70
2018-09-11T07:14:33.106Z,7.83
2018-09-11T07:17:07.500Z,7.97
2018-09-11T07:19:41.902Z,7.93
2018-09-11T07:22:16.505Z,7.93
2018-09-11T07:24:50.942Z,7.97
2018-09-11T07:27:25.290Z,7.80
2018-09-11T07:29:59.659Z,8.03
2018-09-11T07:32:34.094Z,7.40
2018-09-11T07:35:08.503Z,7.50
2018-09-11T07:37:42.890Z,6.90
2018-09-11T07:40:17.358Z,7.80
2018-09-11T07:42:51.742Z,7.33
2018-09-11T07:45:26.121Z,7.63
2018-09-11T07:48:00.631Z,7.50
2018-09-11T07:50:35.018Z,7.60
2018-09-11T07:53:09.526Z,6.73
2018-09-11T07:55:43.978Z,7.60
2018-09-11T07:58:18.398Z,7.00
2018-09-11T08:00:53.582Z,6.83
2018-09-11T08:03:28.045Z,6.93
2018-09-11T08:06:02.529Z,6.70
2018-09-11T08:08:36.903Z,6.70
2018-09-11T08:11:11.337Z,7.10
2018-09-11T08:13:45.644Z,6.70
2018-09-11T08:16:20.075Z,7.20
2018-09-11T08:18:54.453Z,6.63
2018-09-11T08:21:28.777Z,6.23
2018-09-11T08:24:03.241Z,6.10
2018-09-11T08:26:37.593Z,6.43
2018-09-11T08:29:12.005Z,6.00
2018-09-11T08:31:46.324Z,5.70
2018-09-11T08:34:20.678Z,6.00
2018-09-11T08:36:55.322Z,5.60
2018-09-11T08:39:29.679Z,5.70
2018-09-11T08:42:04.034Z,5.73
2018-09-11T08:44:38.494Z,5.43
2018-09-11T08:47:12.841Z,5.37
2018-09-11T08:49:47.264Z,5.60
2018-09-11T08:52:21.668Z,5.22
2018-09-11T08:54:56.050Z,5.15
2018-09-11T08:57:30.869Z,4.75
2018-09-11T09:00:05.638Z,5.12
2018-09-11T09:02:40.014Z,4.60
2018-09-11T09:05:14.458Z,5.00
2018-09-11T09:07:48.845Z,4.80
2018-09-11T09:10:33.474Z,4.72
2018-09-11T09:13:09.824Z,4.42
2018-09-11T09:15:44.251Z,4.60
2018-09-11T09:18:18.587Z,4.70
2018-09-11T09:20:53.007Z,4.65
2018-09-11T09:23:27.409Z,4.72
2018-09-11T09:26:01.759Z,4.30
2018-09-11T09:28:36.202Z,4.40
2018-09-11T09:31:10.618Z,5.10
2018-09-11T09:33:45.667Z,5.00
2018-09-11T09:36:20.131Z,5.17
2018-09-11T09:38:54.527Z,4.60
2018-09-11T09:41:51.295Z,4.78
2018-09-11T09:44:35.938Z,4.60
2018-09-11T09:47:11.098Z,5.10
2018-09-11T09:49:45.471Z,5.08
2018-09-11T09:52:19.844Z,4.50
2018-09-11T09:54:54.306Z,4.65
2018-09-11T09:57:28.691Z,4.75
2018-09-11T10:00:03.092Z,4.95
2018-09-11T10:02:37.472Z,4.62
2018-09-11T10:05:13.971Z,4.92
2018-09-11T10:07:48.352Z,4.92
2018-09-11T10:10:22.878Z,4.95
2018-09-11T10:12:57.772Z,4.78
2018-09-11T10:15:33.197Z,4.80
2018-09-11T10:18:09.281Z,5.17
2018-09-11T10:20:45.807Z,4.78
2018-09-11T10:23:21.030Z,5.12
2018-09-11T10:26:00.384Z,4.85
2018-09-11T10:28:43.278Z,5.47
2018-09-11T10:31:23.615Z,4.37
2018-09-11T10:34:15.941Z,4.80
2018-09-11T10:36:51.197Z,4.90
2018-09-11T10:39:31.732Z,4.40
2018-09-11T10:42:06.151Z,4.35
2018-09-11T10:44:40.531Z,4.70
2018-09-11T10:47:15.289Z,4.50
2018-09-11T10:49:49.719Z,4.97
2018-09-11T10:52:24.072Z,4.92
2018-09-11T10:54:58.455Z,5.42
2018-09-11T10:57:32.846Z,4.90
2018-09-11T11:00:07.362Z,4.70
2018-09-11T11:02:41.773Z,5.15
2018-09-11T11:05:16.231Z,5.40
2018-09-11T11:07:50.630Z,5.15
2018-09-11T11:10:25.102Z,5.30
2018-09-11T11:12:59.717Z,5.30
2018-09-11T11:15:34.772Z,4.85
2018-09-11T11:18:09.420Z,5.20
2018-09-11T11:20:43.799Z,5.25
2018-09-11T11:23:18.652Z,5.03
2018-09-11T11:25:53.138Z,5.05
2018-09-11T11:28:30.030Z,4.87
2018-09-11T11:31:06.799Z,5.62
2018-09-11T11:37:11.298Z,5.42
2018-09-11T11:39:50.355Z,5.15
2018-09-11T11:42:29.594Z,4.65
2018-09-11T11:45:13.019Z,4.92
2018-09-11T11:47:54.433Z,4.92
2018-09-11T11:50:48.424Z,4.92
2018-09-11T11:56:36.751Z,4.65
2018-09-11T11:59:54.072Z,4.70
2018-09-11T12:02:38.159Z,4.35
2018-09-11T12:05:31.147Z,4.22
2018-09-11T12:08:15.892Z,4.47
2018-09-11T12:11:03.820Z,4.45
2018-09-11T12:13:55.885Z,4.17
2018-09-11T12:16:49.025Z,4.05
2018-09-11T12:19:24.628Z,4.83
2018-09-11T12:21:59.597Z,4.37
2018-09-11T12:24:33.991Z,4.15
2018-09-11T12:27:08.550Z,4.28
2018-09-11T12:29:42.917Z,4.53
2018-09-11T12:32:17.395Z,4.22
2018-09-11T12:34:51.786Z,4.25
2018-09-11T12:37:27.299Z,4.00
2018-09-11T12:40:02.869Z,4.28
2018-09-11T12:42:37.209Z,3.90
2018-09-11T12:45:11.588Z,4.20
2018-09-11T12:47:46.636Z,4.78
2018-09-11T12:50:20.788Z,4.40
2018-09-11T12:52:55.331Z,4.10
2018-09-11T12:55:29.680Z,4.03
2018-09-11T12:58:04.066Z,4.12
2018-09-11T13:00:38.470Z,4.37
2018-09-11T13:03:12.944Z,4.47
2018-09-11T13:05:47.555Z,4.53
2018-09-11T13:08:22.006Z,4.40
2018-09-11T13:10:56.447Z,4.08
2018-09-11T13:13:31.030Z,4.05
2018-09-11T13:16:05.449Z,3.85
2018-09-11T13:18:39.806Z,4.05
2018-09-11T13:21:14.169Z,4.40
2018-09-11T13:23:48.483Z,4.35
2018-09-11T13:26:22.847Z,3.95
2018-09-11T13:28:57.262Z,4.37
2018-09-11T13:31:31.583Z,4.62
2018-09-11T13:34:06.302Z,4.53
2018-09-11T13:36:40.725Z,4.00
2018-09-11T13:39:15.134Z,4.28
2018-09-11T13:41:49.511Z,4.53
2018-09-11T13:44:23.927Z,4.10
2018-09-11T13:46:58.951Z,4.25
2018-09-11T13:49:33.913Z,4.10
2018-09-11T13:52:08.266Z,4.30
2018-09-11T13:54:43.242Z,4.45
2018-09-11T13:57:17.714Z,4.62
2018-09-11T13:59:53.306Z,3.85
2018-09-11T14:02:28.871Z,4.47
2018-09-11T14:05:03.417Z,3.85
2018-09-11T14:07:38.021Z,4.42
2018-09-11T14:10:12.414Z,4.08
2018-09-11T14:12:46.769Z,4.25
2018-09-11T14:15:21.115Z,3.87
2018-09-11T14:17:55.927Z,4.37
2018-09-11T14:20:30.285Z,4.17
2018-09-11T14:23:04.723Z,4.58
2018-09-11T14:25:39.115Z,3.60
2018-09-11T14:28:13.767Z,4.37
2018-09-11T14:30:48.156Z,3.83
2018-09-11T14:33:22.566Z,3.95
2018-09-11T14:35:56.995Z,3.70
2018-09-11T14:38:31.385Z,4.10
2018-09-11T14:41:05.794Z,4.35
2018-09-11T14:43:40.156Z,6.08
2018-09-11T14:46:14.577Z,4.08
2018-09-11T14:48:49.854Z,4.00
2018-09-11T14:51:24.222Z,3.62
2018-09-11T14:53:58.602Z,4.15
2018-09-11T14:56:33.608Z,4.62
2018-09-11T14:59:07.994Z,4.37
2018-09-11T15:01:42.352Z,4.62
2018-09-11T15:04:16.814Z,4.60
2018-09-11T15:06:51.178Z,3.98
2018-09-11T15:09:25.526Z,5.08
2018-09-11T15:12:04.945Z,4.15
2018-09-11T15:14:40.743Z,3.90
2018-09-11T15:17:15.846Z,3.90
2018-09-11T15:19:50.183Z,4.25
2018-09-11T15:22:24.776Z,4.20
2018-09-11T15:24:59.238Z,4.40
2018-09-11T15:27:33.571Z,4.00
2018-09-11T15:30:07.940Z,4.20
2018-09-11T15:32:43.002Z,4.00
2018-09-11T15:35:17.338Z,4.67
2018-09-11T15:37:51.701Z,4.47
2018-09-11T15:40:26.031Z,3.80
2018-09-11T15:43:00.377Z,4.35
2018-09-11T15:45:34.739Z,3.90
2018-09-11T15:48:09.140Z,5.40
2018-09-11T15:50:43.489Z,4.22
2018-09-11T15:53:17.807Z,4.25
2018-09-11T15:55:52.340Z,4.15
2018-09-11T15:58:26.625Z,5.00
2018-09-11T16:01:01.027Z,4.12
2018-09-11T16:03:35.351Z,4.40
2018-09-11T16:06:09.722Z,4.60
2018-09-11T16:08:44.098Z,4.35
2018-09-11T16:11:18.430Z,4.33
2018-09-11T16:13:52.755Z,4.15
2018-09-11T16:16:27.054Z,4.17
2018-09-11T16:19:01.415Z,4.53
2018-09-11T16:21:35.757Z,4.05
2018-09-11T16:24:10.074Z,4.95
2018-09-11T16:26:44.431Z,5.25
2018-09-11T16:29:18.717Z,4.17
2018-09-11T16:31:53.077Z,4.70
2018-09-11T16:34:27.425Z,4.47
2018-09-11T16:37:01.745Z,5.17
2018-09-11T16:39:36.050Z,4.15
2018-09-11T16:42:10.389Z,5.83
2018-09-11T16:44:44.809Z,5.03
2018-09-11T16:47:19.490Z,4.70
2018-09-11T16:49:53.813Z,5.95
2018-09-11T16:52:28.106Z,5.25
2018-09-11T16:55:02.425Z,4.62
2018-09-11T16:57:36.756Z,4.90
2018-09-11T17:00:11.122Z,18.37
2018-09-11T17:02:45.486Z,9.88
2018-09-11T17:05:19.850Z,5.83
2018-09-11T17:07:54.153Z,4.10
2018-09-11T17:10:28.571Z,3.95
2018-09-11T17:13:08.003Z,4.53
2018-09-11T17:15:42.381Z,4.22
2018-09-11T17:18:16.742Z,4.55
2018-09-11T17:20:51.057Z,4.00
2018-09-11T17:23:25.399Z,9.23
2018-09-11T17:25:59.769Z,4.50
2018-09-11T17:28:34.137Z,4.67
2018-09-11T17:31:08.733Z,4.17
2018-09-11T17:33:43.071Z,4.50
2018-09-11T17:36:17.960Z,4.22
2018-09-11T17:38:52.705Z,4.35
2018-09-11T17:41:27.050Z,4.55
2018-09-11T17:44:01.402Z,4.22
2018-09-11T17:46:35.870Z,4.50
2018-09-11T17:49:10.321Z,4.60
2018-09-11T17:51:44.673Z,4.10
2018-09-11T17:54:19.067Z,4.33
2018-09-11T17:56:53.641Z,4.35
2018-09-11T17:59:28.473Z,4.90
2018-09-11T18:02:02.777Z,5.35
2018-09-11T18:04:37.162Z,4.85
2018-09-11T18:07:11.531Z,4.45
2018-09-11T18:09:45.922Z,4.65
2018-09-11T18:12:20.382Z,4.40
2018-09-11T18:15:11.027Z,4.60
2018-09-11T18:17:45.603Z,5.27
2018-09-11T18:20:21.018Z,4.70
2018-09-11T18:22:55.618Z,4.73
2018-09-11T18:25:30.399Z,4.87
2018-09-11T18:28:10.288Z,5.43
2018-09-11T18:30:44.900Z,4.70
2018-09-11T18:33:19.283Z,5.10
2018-09-11T18:35:53.891Z,4.93
2018-09-11T18:38:38.131Z,5.43
2018-09-11T18:41:16.255Z,5.17
2018-09-11T18:44:05.229Z,5.53
2018-09-11T18:50:41.316Z,5.63
2018-09-11T18:53:17.771Z,5.50
2018-09-11T18:55:52.378Z,5.33
2018-09-11T18:58:26.799Z,4.63
2018-09-11T19:01:01.214Z,5.20
2018-09-11T19:03:35.590Z,5.00
2018-09-11T19:06:14.403Z,4.97
2018-09-11T19:08:48.796Z,4.90
2018-09-11T19:11:23.158Z,5.30
2018-09-11T19:13:57.527Z,4.87
2018-09-11T19:16:31.933Z,5.07
2018-09-11T19:19:06.550Z,5.10
2018-09-11T19:21:40.921Z,5.07
2018-09-11T19:24:15.300Z,4.70
2018-09-11T19:26:49.730Z,4.60
2018-09-11T19:29:24.152Z,4.83
2018-09-11T19:31:58.517Z,5.33
2018-09-11T19:34:32.864Z,5.07
2018-09-11T19:37:07.255Z,4.90
2018-09-11T19:39:41.637Z,5.17
2018-09-11T19:42:16.052Z,4.73
2018-09-11T19:44:50.387Z,4.87
2018-09-11T19:47:24.742Z,4.73
2018-09-11T19:49:59.077Z,4.80
2018-09-11T19:52:33.987Z,5.40
2018-09-11T19:55:08.480Z,5.13
2018-09-11T19:57:42.883Z,5.40
2018-09-11T20:00:17.215Z,5.20
2018-09-11T20:02:51.636Z,5.03
2018-09-11T20:05:26.027Z,5.10
2018-09-11T20:08:00.387Z,5.80
2018-09-11T20:10:34.751Z,5.73
2018-09-11T20:13:09.112Z,5.43
2018-09-11T20:15:43.462Z,6.07
2018-09-11T20:18:17.787Z,5.43
2018-09-11T20:20:52.206Z,5.73
2018-09-11T20:23:26.632Z,5.83
2018-09-11T20:26:00.961Z,5.93
2018-09-11T20:28:35.334Z,5.80
2018-09-11T20:31:09.682Z,5.40
2018-09-11T20:33:44.055Z,6.90
2018-09-11T20:36:18.418Z,5.50
2018-09-11T20:38:52.771Z,5.47
2018-09-11T20:41:27.172Z,5.30
2018-09-11T20:44:01.566Z,5.50
2018-09-11T20:46:35.937Z,4.90
2018-09-11T20:49:10.300Z,5.40
2018-09-11T20:51:44.701Z,5.30
2018-09-11T20:54:19.036Z,5.93
2018-09-11T20:56:53.377Z,5.70
2018-09-11T20:59:27.715Z,5.30
2018-09-11T21:02:02.065Z,4.60
2018-09-11T21:04:36.507Z,5.50
2018-09-11T21:07:10.879Z,6.00
2018-09-11T21:09:45.230Z,5.20
2018-09-11T21:12:19.590Z,5.77
2018-09-11T21:14:54.002Z,5.43
2018-09-11T21:17:28.422Z,5.17
2018-09-11T21:20:02.794Z,5.73
2018-09-11T21:22:37.159Z,5.67
2018-09-11T21:25:11.607Z,4.70
2018-09-11T21:27:45.998Z,5.70
2018-09-11T21:30:20.415Z,5.73
2018-09-11T21:32:54.752Z,5.43
2018-09-11T21:35:29.101Z,5.70
2018-09-11T21:38:03.511Z,5.50
2018-09-11T21:40:37.890Z,5.57
2018-09-11T21:43:12.261Z,5.43
2018-09-11T21:45:46.611Z,5.37
2018-09-11T21:48:21.022Z,5.23
2018-09-11T21:50:55.462Z,6.17
2018-09-11T21:53:29.855Z,5.90
2018-09-11T21:56:04.235Z,5.83
2018-09-11T21:58:38.630Z,5.80
2018-09-11T22:01:18.059Z,5.70
2018-09-11T22:03:52.375Z,5.97
2018-09-11T22:06:26.745Z,6.20
2018-09-11T22:09:01.082Z,5.40
2018-09-11T22:11:35.436Z,6.13
2018-09-11T22:14:10.340Z,6.40
2018-09-11T22:16:44.830Z,6.07
2018-09-11T22:19:19.183Z,6.60
2018-09-11T22:21:53.546Z,6.00
2018-09-11T22:24:27.936Z,6.33
2018-09-11T22:27:02.323Z,6.27
2018-09-11T22:29:36.667Z,6.53
2018-09-11T22:32:11.033Z,6.87
2018-09-11T22:34:45.400Z,6.30
2018-09-11T22:37:19.900Z,6.30
2018-09-11T22:39:54.273Z,6.17
2018-09-11T22:42:28.631Z,6.40
2018-09-11T22:45:03.022Z,6.60
2018-09-11T22:47:37.386Z,6.17
2018-09-11T22:50:11.865Z,6.60
2018-09-11T22:52:46.181Z,6.17
2018-09-11T22:55:20.521Z,6.37
2018-09-11T22:57:54.886Z,6.80
2018-09-11T23:00:29.279Z,7.23
2018-09-11T23:03:03.739Z,6.43
2018-09-11T23:05:38.082Z,6.90
2018-09-11T23:08:12.500Z,6.30
2018-09-11T23:10:46.980Z,6.37
2018-09-11T23:13:21.491Z,6.80
2018-09-11T23:15:55.897Z,6.70
2018-09-11T23:18:30.285Z,6.67
2018-09-11T23:21:04.612Z,6.47
2018-09-11T23:23:38.989Z,6.27
2018-09-11T23:26:13.357Z,6.37
2018-09-11T23:28:47.736Z,7.03
2018-09-11T23:31:22.208Z,6.43
2018-09-11T23:33:56.610Z,6.10
2018-09-11T23:36:30.949Z,6.73
2018-09-11T23:39:07.134Z,6.33
2018-09-11T23:41:41.550Z,6.57
2018-09-11T23:44:15.963Z,6.73
2018-09-11T23:46:50.414Z,6.80
2018-09-11T23:49:24.787Z,6.97
2018-09-11T23:51:59.114Z,6.37
2018-09-11T23:54:33.469Z,7.17
2018-09-11T23:57:07.802Z,6.47
2018-09-11T23:59:42.587Z,7.27
